Terminal Aerodrome Forecast
Issued by NWS

Home | Current Version | Previous Version | Text Only | Print | Product List | Glossary Off
Versions: 1 2 3 4 5 6 7 8 9 10 11 12 13 14 15 16 17

000
FTUS43 KPAH 220526
TAFOWB
TAF
KOWB 220526Z 2206/2306 16004KT P6SM BKN100
      TEMPO 2207/2210 4SM BR
     FM221000 00000KT 2SM BR BKN015
     FM221400 00000KT 4SM BR BKN025
     FM221800 18005KT P6SM BKN035=

USA.gov is the U.S. government's official web portal to all federal, state and local government web resources and services.